sensor_id;sensor_type;location;lat;lon;timestamp;P1;durP1;ratioP1;P2;durP2;ratioP2
10493;SDS011;5294;49.410;8.698;2022-10-16T00:02:12;2.67;;;1.87;;
10493;SDS011;5294;49.410;8.698;2022-10-16T00:04:42;2.80;;;1.90;;
10493;SDS011;5294;49.410;8.698;2022-10-16T00:07:08;2.07;;;1.77;;
10493;SDS011;5294;49.410;8.698;2022-10-16T00:09:39;4.00;;;1.80;;
10493;SDS011;5294;49.410;8.698;2022-10-16T00:12:04;2.67;;;1.77;;
10493;SDS011;5294;49.410;8.698;2022-10-16T00:14:33;3.23;;;1.90;;
10493;SDS011;5294;49.410;8.698;2022-10-16T00:16:59;1.90;;;1.57;;
10493;SDS011;5294;49.410;8.698;2022-10-16T00:19:25;2.93;;;1.87;;
10493;SDS011;5294;49.410;8.698;2022-10-16T00:21:50;3.63;;;1.83;;
10493;SDS011;5294;49.410;8.698;2022-10-16T00:24:19;2.17;;;1.97;;
10493;SDS011;5294;49.410;8.698;2022-10-16T00:26:45;4.03;;;2.03;;
10493;SDS011;5294;49.410;8.698;2022-10-16T00:29:14;2.10;;;2.00;;
10493;SDS011;5294;49.410;8.698;2022-10-16T00:31:40;3.53;;;2.40;;
10493;SDS011;5294;49.410;8.698;2022-10-16T00:34:11;1.90;;;1.80;;
10493;SDS011;5294;49.410;8.698;2022-10-16T00:36:42;2.00;;;1.90;;
10493;SDS011;5294;49.410;8.698;2022-10-16T00:39:08;2.13;;;1.93;;
10493;SDS011;5294;49.410;8.698;2022-10-16T00:41:34;2.17;;;1.97;;
10493;SDS011;5294;49.410;8.698;2022-10-16T00:44:01;2.67;;;2.03;;
10493;SDS011;5294;49.410;8.698;2022-10-16T00:46:29;1.90;;;1.70;;
10493;SDS011;5294;49.410;8.698;2022-10-16T00:51:22;3.13;;;1.90;;
10493;SDS011;5294;49.410;8.698;2022-10-16T00:53:49;3.30;;;1.93;;
10493;SDS011;5294;49.410;8.698;2022-10-16T00:56:17;2.67;;;2.23;;
10493;SDS011;5294;49.410;8.698;2022-10-16T00:58:43;2.10;;;1.83;;
10493;SDS011;5294;49.410;8.698;2022-10-16T01:01:10;2.70;;;1.93;;
10493;SDS011;5294;49.410;8.698;2022-10-16T01:03:40;3.03;;;1.90;;
10493;SDS011;5294;49.410;8.698;2022-10-16T01:11:17;2.77;;;2.20;;
10493;SDS011;5294;49.410;8.698;2022-10-16T01:13:46;1.90;;;1.80;;
10493;SDS011;5294;49.410;8.698;2022-10-16T01:16:17;2.50;;;2.30;;
10493;SDS011;5294;49.410;8.698;2022-10-16T01:19:31;2.70;;;2.00;;
10493;SDS011;5294;49.410;8.698;2022-10-16T01:21:38;2.27;;;2.17;;
10493;SDS011;5294;49.410;8.698;2022-10-16T01:29:19;3.13;;;2.17;;
10493;SDS011;5294;49.410;8.698;2022-10-16T01:31:50;2.63;;;2.43;;
10493;SDS011;5294;49.410;8.698;2022-10-16T01:34:23;1.93;;;1.83;;
10493;SDS011;5294;49.410;8.698;2022-10-16T01:36:56;2.30;;;1.97;;
10493;SDS011;5294;49.410;8.698;2022-10-16T01:39:24;2.77;;;2.20;;
10493;SDS011;5294;49.410;8.698;2022-10-16T01:41:55;2.07;;;1.97;;
10493;SDS011;5294;49.410;8.698;2022-10-16T01:44:28;2.30;;;2.20;;
10493;SDS011;5294;49.410;8.698;2022-10-16T01:46:55;2.40;;;2.20;;
10493;SDS011;5294;49.410;8.698;2022-10-16T01:49:22;2.27;;;2.07;;
10493;SDS011;5294;49.410;8.698;2022-10-16T01:51:49;2.03;;;1.93;;
10493;SDS011;5294;49.410;8.698;2022-10-16T01:54:20;3.27;;;2.00;;
10493;SDS011;5294;49.410;8.698;2022-10-16T01:56:50;3.03;;;2.10;;
10493;SDS011;5294;49.410;8.698;2022-10-16T01:59:20;2.20;;;2.10;;
10493;SDS011;5294;49.410;8.698;2022-10-16T02:01:48;2.30;;;2.10;;
10493;SDS011;5294;49.410;8.698;2022-10-16T02:04:33;2.53;;;2.43;;
10493;SDS011;5294;49.410;8.698;2022-10-16T02:07:00;2.20;;;2.10;;
10493;SDS011;5294;49.410;8.698;2022-10-16T02:09:28;2.50;;;2.20;;
10493;SDS011;5294;49.410;8.698;2022-10-16T02:11:55;2.40;;;2.20;;
10493;SDS011;5294;49.410;8.698;2022-10-16T02:14:22;2.40;;;2.20;;
10493;SDS011;5294;49.410;8.698;2022-10-16T02:16:49;3.87;;;2.50;;
10493;SDS011;5294;49.410;8.698;2022-10-16T02:19:16;5.97;;;2.47;;
10493;SDS011;5294;49.410;8.698;2022-10-16T02:21:58;3.00;;;2.20;;
10493;SDS011;5294;49.410;8.698;2022-10-16T02:29:33;2.43;;;2.23;;
10493;SDS011;5294;49.410;8.698;2022-10-16T02:32:03;2.43;;;2.23;;
10493;SDS011;5294;49.410;8.698;2022-10-16T02:34:30;2.63;;;2.53;;
10493;SDS011;5294;49.410;8.698;2022-10-16T02:36:57;4.00;;;2.33;;
10493;SDS011;5294;49.410;8.698;2022-10-16T02:39:24;3.70;;;2.10;;
10493;SDS011;5294;49.410;8.698;2022-10-16T02:41:50;2.40;;;2.20;;
10493;SDS011;5294;49.410;8.698;2022-10-16T02:44:16;2.27;;;2.07;;
10493;SDS011;5294;49.410;8.698;2022-10-16T02:46:42;3.00;;;2.53;;
10493;SDS011;5294;49.410;8.698;2022-10-16T02:49:08;2.77;;;2.50;;
10493;SDS011;5294;49.410;8.698;2022-10-16T02:51:36;2.50;;;2.30;;
10493;SDS011;5294;49.410;8.698;2022-10-16T02:54:02;4.83;;;2.57;;
10493;SDS011;5294;49.410;8.698;2022-10-16T02:56:28;5.53;;;2.70;;
10493;SDS011;5294;49.410;8.698;2022-10-16T02:58:57;2.60;;;2.40;;
10493;SDS011;5294;49.410;8.698;2022-10-16T03:01:23;2.90;;;2.60;;
10493;SDS011;5294;49.410;8.698;2022-10-16T03:03:51;7.57;;;2.63;;
10493;SDS011;5294;49.410;8.698;2022-10-16T03:06:17;4.37;;;2.60;;
10493;SDS011;5294;49.410;8.698;2022-10-16T03:08:43;3.30;;;2.57;;
10493;SDS011;5294;49.410;8.698;2022-10-16T03:11:09;3.73;;;2.50;;
10493;SDS011;5294;49.410;8.698;2022-10-16T03:13:35;5.03;;;2.37;;
10493;SDS011;5294;49.410;8.698;2022-10-16T03:16:01;4.07;;;2.67;;
10493;SDS011;5294;49.410;8.698;2022-10-16T03:18:27;4.87;;;2.50;;
10493;SDS011;5294;49.410;8.698;2022-10-16T03:20:53;4.93;;;2.70;;
10493;SDS011;5294;49.410;8.698;2022-10-16T03:23:19;5.87;;;2.80;;
10493;SDS011;5294;49.410;8.698;2022-10-16T03:25:45;2.73;;;2.53;;
10493;SDS011;5294;49.410;8.698;2022-10-16T03:28:11;3.70;;;2.60;;
10493;SDS011;5294;49.410;8.698;2022-10-16T03:30:39;2.83;;;2.53;;
10493;SDS011;5294;49.410;8.698;2022-10-16T03:33:05;5.17;;;2.83;;
10493;SDS011;5294;49.410;8.698;2022-10-16T03:35:31;5.30;;;2.70;;
10493;SDS011;5294;49.410;8.698;2022-10-16T03:37:57;3.77;;;2.60;;
10493;SDS011;5294;49.410;8.698;2022-10-16T03:40:24;3.33;;;2.80;;
10493;SDS011;5294;49.410;8.698;2022-10-16T03:42:50;5.53;;;2.87;;
10493;SDS011;5294;49.410;8.698;2022-10-16T03:45:16;3.57;;;2.80;;
10493;SDS011;5294;49.410;8.698;2022-10-16T03:47:42;3.10;;;2.50;;
10493;SDS011;5294;49.410;8.698;2022-10-16T03:50:08;3.10;;;2.80;;
10493;SDS011;5294;49.410;8.698;2022-10-16T03:52:37;4.30;;;2.70;;
10493;SDS011;5294;49.410;8.698;2022-10-16T03:55:03;3.77;;;2.70;;
10493;SDS011;5294;49.410;8.698;2022-10-16T03:57:29;3.40;;;2.93;;
10493;SDS011;5294;49.410;8.698;2022-10-16T03:59:55;2.93;;;2.73;;
10493;SDS011;5294;49.410;8.698;2022-10-16T04:02:21;3.40;;;2.70;;
10493;SDS011;5294;49.410;8.698;2022-10-16T04:04:47;3.80;;;2.93;;
10493;SDS011;5294;49.410;8.698;2022-10-16T04:07:13;7.43;;;3.00;;
10493;SDS011;5294;49.410;8.698;2022-10-16T04:09:41;3.30;;;3.00;;
10493;SDS011;5294;49.410;8.698;2022-10-16T04:12:07;3.47;;;3.07;;
10493;SDS011;5294;49.410;8.698;2022-10-16T04:14:33;4.17;;;3.00;;
10493;SDS011;5294;49.410;8.698;2022-10-16T04:17:01;3.93;;;2.77;;
10493;SDS011;5294;49.410;8.698;2022-10-16T04:19:27;2.87;;;2.40;;
10493;SDS011;5294;49.410;8.698;2022-10-16T04:21:53;3.63;;;2.90;;
10493;SDS011;5294;49.410;8.698;2022-10-16T04:24:19;9.17;;;3.00;;
10493;SDS011;5294;49.410;8.698;2022-10-16T04:26:47;4.03;;;2.90;;
10493;SDS011;5294;49.410;8.698;2022-10-16T04:29:13;3.83;;;2.93;;
10493;SDS011;5294;49.410;8.698;2022-10-16T04:31:41;3.40;;;3.10;;
10493;SDS011;5294;49.410;8.698;2022-10-16T04:34:07;3.53;;;2.90;;
10493;SDS011;5294;49.410;8.698;2022-10-16T04:36:33;2.83;;;2.60;;
10493;SDS011;5294;49.410;8.698;2022-10-16T04:39:01;4.90;;;3.00;;
10493;SDS011;5294;49.410;8.698;2022-10-16T04:41:30;3.20;;;2.67;;
10493;SDS011;5294;49.410;8.698;2022-10-16T04:43:56;5.87;;;3.23;;
10493;SDS011;5294;49.410;8.698;2022-10-16T04:46:24;3.90;;;2.73;;
10493;SDS011;5294;49.410;8.698;2022-10-16T04:48:50;5.37;;;3.07;;
10493;SDS011;5294;49.410;8.698;2022-10-16T04:51:18;6.20;;;2.90;;
10493;SDS011;5294;49.410;8.698;2022-10-16T04:53:47;3.60;;;3.30;;
10493;SDS011;5294;49.410;8.698;2022-10-16T04:56:15;3.37;;;3.00;;
10493;SDS011;5294;49.410;8.698;2022-10-16T04:58:41;6.57;;;3.10;;
10493;SDS011;5294;49.410;8.698;2022-10-16T05:01:07;3.53;;;3.10;;
10493;SDS011;5294;49.410;8.698;2022-10-16T05:03:33;4.37;;;3.20;;
10493;SDS011;5294;49.410;8.698;2022-10-16T05:05:59;3.83;;;2.87;;
10493;SDS011;5294;49.410;8.698;2022-10-16T05:08:28;4.67;;;3.10;;
10493;SDS011;5294;49.410;8.698;2022-10-16T05:10:54;4.63;;;2.93;;
10493;SDS011;5294;49.410;8.698;2022-10-16T05:13:20;4.57;;;2.80;;
10493;SDS011;5294;49.410;8.698;2022-10-16T05:15:47;3.67;;;3.13;;
10493;SDS011;5294;49.410;8.698;2022-10-16T05:18:15;4.23;;;2.97;;
10493;SDS011;5294;49.410;8.698;2022-10-16T05:20:41;3.17;;;2.90;;
10493;SDS011;5294;49.410;8.698;2022-10-16T05:23:07;5.43;;;2.87;;
10493;SDS011;5294;49.410;8.698;2022-10-16T05:25:38;5.47;;;3.37;;
10493;SDS011;5294;49.410;8.698;2022-10-16T05:28:04;4.60;;;2.73;;
10493;SDS011;5294;49.410;8.698;2022-10-16T05:30:30;4.30;;;3.08;;
10493;SDS011;5294;49.410;8.698;2022-10-16T05:32:56;5.27;;;2.83;;
10493;SDS011;5294;49.410;8.698;2022-10-16T05:35:22;3.50;;;2.87;;
10493;SDS011;5294;49.410;8.698;2022-10-16T05:37:51;3.10;;;2.80;;
10493;SDS011;5294;49.410;8.698;2022-10-16T05:40:18;4.40;;;3.00;;
10493;SDS011;5294;49.410;8.698;2022-10-16T05:42:44;3.53;;;2.90;;
10493;SDS011;5294;49.410;8.698;2022-10-16T05:45:10;5.60;;;3.20;;
10493;SDS011;5294;49.410;8.698;2022-10-16T05:47:37;2.93;;;2.73;;
10493;SDS011;5294;49.410;8.698;2022-10-16T05:50:03;3.50;;;3.10;;
10493;SDS011;5294;49.410;8.698;2022-10-16T05:52:29;5.03;;;3.40;;
10493;SDS011;5294;49.410;8.698;2022-10-16T05:54:55;3.23;;;3.00;;
10493;SDS011;5294;49.410;8.698;2022-10-16T05:57:21;4.70;;;3.20;;
10493;SDS011;5294;49.410;8.698;2022-10-16T05:59:47;3.27;;;2.90;;
10493;SDS011;5294;49.410;8.698;2022-10-16T06:02:15;3.40;;;3.10;;
10493;SDS011;5294;49.410;8.698;2022-10-16T06:04:43;3.23;;;2.67;;
10493;SDS011;5294;49.410;8.698;2022-10-16T06:07:09;4.80;;;3.30;;
10493;SDS011;5294;49.410;8.698;2022-10-16T06:09:35;4.13;;;3.73;;
10493;SDS011;5294;49.410;8.698;2022-10-16T06:12:02;3.60;;;2.90;;
10493;SDS011;5294;49.410;8.698;2022-10-16T06:14:28;5.10;;;3.10;;
10493;SDS011;5294;49.410;8.698;2022-10-16T06:16:54;4.77;;;2.80;;
10493;SDS011;5294;49.410;8.698;2022-10-16T06:19:20;6.97;;;3.37;;
10493;SDS011;5294;49.410;8.698;2022-10-16T06:21:46;5.70;;;3.10;;
10493;SDS011;5294;49.410;8.698;2022-10-16T06:24:12;3.80;;;3.37;;
10493;SDS011;5294;49.410;8.698;2022-10-16T06:26:38;5.53;;;3.10;;
10493;SDS011;5294;49.410;8.698;2022-10-16T06:29:04;3.37;;;3.07;;
10493;SDS011;5294;49.410;8.698;2022-10-16T06:31:31;5.40;;;3.20;;
10493;SDS011;5294;49.410;8.698;2022-10-16T06:33:59;3.40;;;3.10;;
10493;SDS011;5294;49.410;8.698;2022-10-16T06:36:25;5.33;;;3.00;;
10493;SDS011;5294;49.410;8.698;2022-10-16T06:38:52;3.10;;;2.80;;
10493;SDS011;5294;49.410;8.698;2022-10-16T06:41:21;3.77;;;2.77;;
10493;SDS011;5294;49.410;8.698;2022-10-16T06:43:48;3.27;;;3.00;;
10493;SDS011;5294;49.410;8.698;2022-10-16T06:46:20;4.13;;;3.00;;
10493;SDS011;5294;49.410;8.698;2022-10-16T06:48:49;3.07;;;2.83;;
10493;SDS011;5294;49.410;8.698;2022-10-16T06:51:16;2.83;;;2.60;;
10493;SDS011;5294;49.410;8.698;2022-10-16T06:53:44;4.43;;;2.80;;
10493;SDS011;5294;49.410;8.698;2022-10-16T06:56:11;3.83;;;3.30;;
10493;SDS011;5294;49.410;8.698;2022-10-16T06:58:37;3.03;;;2.80;;
10493;SDS011;5294;49.410;8.698;2022-10-16T07:01:04;3.53;;;2.50;;
10493;SDS011;5294;49.410;8.698;2022-10-16T07:03:35;6.53;;;3.20;;
10493;SDS011;5294;49.410;8.698;2022-10-16T07:06:02;3.47;;;2.90;;
10493;SDS011;5294;49.410;8.698;2022-10-16T07:08:32;3.70;;;2.80;;
10493;SDS011;5294;49.410;8.698;2022-10-16T07:10:59;2.87;;;2.67;;
10493;SDS011;5294;49.410;8.698;2022-10-16T07:13:25;4.33;;;2.70;;
10493;SDS011;5294;49.410;8.698;2022-10-16T07:15:51;3.73;;;2.33;;
10493;SDS011;5294;49.410;8.698;2022-10-16T07:18:17;2.70;;;2.50;;
10493;SDS011;5294;49.410;8.698;2022-10-16T07:20:43;3.07;;;2.60;;
10493;SDS011;5294;49.410;8.698;2022-10-16T07:23:13;3.07;;;2.50;;
10493;SDS011;5294;49.410;8.698;2022-10-16T07:25:39;4.03;;;2.60;;
10493;SDS011;5294;49.410;8.698;2022-10-16T07:28:05;5.33;;;2.60;;
10493;SDS011;5294;49.410;8.698;2022-10-16T07:30:36;3.57;;;2.67;;
10493;SDS011;5294;49.410;8.698;2022-10-16T07:33:02;3.77;;;2.53;;
10493;SDS011;5294;49.410;8.698;2022-10-16T07:35:28;2.70;;;2.27;;
10493;SDS011;5294;49.410;8.698;2022-10-16T07:37:56;3.93;;;3.10;;
10493;SDS011;5294;49.410;8.698;2022-10-16T07:40:24;3.83;;;2.40;;
10493;SDS011;5294;49.410;8.698;2022-10-16T07:42:52;2.90;;;2.60;;
10493;SDS011;5294;49.410;8.698;2022-10-16T07:45:18;2.70;;;2.50;;
10493;SDS011;5294;49.410;8.698;2022-10-16T07:47:46;2.50;;;2.40;;
10493;SDS011;5294;49.410;8.698;2022-10-16T07:50:12;2.60;;;2.40;;
10493;SDS011;5294;49.410;8.698;2022-10-16T07:52:40;2.60;;;2.40;;
10493;SDS011;5294;49.410;8.698;2022-10-16T07:55:09;3.57;;;2.30;;
10493;SDS011;5294;49.410;8.698;2022-10-16T07:57:35;2.40;;;2.30;;
10493;SDS011;5294;49.410;8.698;2022-10-16T08:00:01;2.37;;;2.20;;
10493;SDS011;5294;49.410;8.698;2022-10-16T08:02:27;2.50;;;2.30;;
10493;SDS011;5294;49.410;8.698;2022-10-16T08:04:53;3.57;;;2.40;;
10493;SDS011;5294;49.410;8.698;2022-10-16T08:07:23;3.10;;;2.10;;
10493;SDS011;5294;49.410;8.698;2022-10-16T08:09:49;2.33;;;2.17;;
10493;SDS011;5294;49.410;8.698;2022-10-16T08:12:16;3.83;;;2.03;;
10493;SDS011;5294;49.410;8.698;2022-10-16T08:14:45;2.37;;;2.17;;
10493;SDS011;5294;49.410;8.698;2022-10-16T08:17:13;2.53;;;2.30;;
10493;SDS011;5294;49.410;8.698;2022-10-16T08:19:42;3.23;;;1.87;;
10493;SDS011;5294;49.410;8.698;2022-10-16T08:22:11;2.53;;;2.00;;
10493;SDS011;5294;49.410;8.698;2022-10-16T08:24:37;4.90;;;2.00;;
10493;SDS011;5294;49.410;8.698;2022-10-16T08:27:03;2.10;;;1.80;;
10493;SDS011;5294;49.410;8.698;2022-10-16T08:29:31;2.20;;;2.10;;
10493;SDS011;5294;49.410;8.698;2022-10-16T08:32:00;2.60;;;2.17;;
10493;SDS011;5294;49.410;8.698;2022-10-16T08:34:26;2.47;;;2.00;;
10493;SDS011;5294;49.410;8.698;2022-10-16T08:36:55;2.93;;;2.27;;
10493;SDS011;5294;49.410;8.698;2022-10-16T08:39:23;3.00;;;1.90;;
10493;SDS011;5294;49.410;8.698;2022-10-16T08:44:31;1.77;;;1.67;;
10493;SDS011;5294;49.410;8.698;2022-10-16T08:47:03;2.57;;;2.37;;
10493;SDS011;5294;49.410;8.698;2022-10-16T08:49:34;5.30;;;2.40;;
10493;SDS011;5294;49.410;8.698;2022-10-16T08:52:06;2.03;;;1.93;;
10493;SDS011;5294;49.410;8.698;2022-10-16T08:54:37;5.27;;;2.30;;
10493;SDS011;5294;49.410;8.698;2022-10-16T08:57:09;3.27;;;2.30;;
10493;SDS011;5294;49.410;8.698;2022-10-16T08:59:35;3.13;;;2.17;;
10493;SDS011;5294;49.410;8.698;2022-10-16T09:10:11;3.60;;;2.10;;
10493;SDS011;5294;49.410;8.698;2022-10-16T09:13:29;3.00;;;1.90;;
10493;SDS011;5294;49.410;8.698;2022-10-16T09:15:34;2.13;;;1.93;;
10493;SDS011;5294;49.410;8.698;2022-10-16T09:18:24;3.70;;;2.47;;
10493;SDS011;5294;49.410;8.698;2022-10-16T09:20:51;2.80;;;1.97;;
10493;SDS011;5294;49.410;8.698;2022-10-16T09:23:23;2.17;;;1.93;;
10493;SDS011;5294;49.410;8.698;2022-10-16T09:25:51;2.17;;;2.00;;
10493;SDS011;5294;49.410;8.698;2022-10-16T09:28:20;2.30;;;2.10;;
10493;SDS011;5294;49.410;8.698;2022-10-16T09:30:46;5.43;;;1.90;;
10493;SDS011;5294;49.410;8.698;2022-10-16T09:33:14;2.53;;;1.80;;
10493;SDS011;5294;49.410;8.698;2022-10-16T09:35:44;2.20;;;2.10;;
10493;SDS011;5294;49.410;8.698;2022-10-16T09:38:29;1.63;;;1.50;;
10493;SDS011;5294;49.410;8.698;2022-10-16T09:40:56;6.03;;;2.37;;
10493;SDS011;5294;49.410;8.698;2022-10-16T09:46:02;2.10;;;1.90;;
10493;SDS011;5294;49.410;8.698;2022-10-16T09:48:48;1.53;;;1.43;;
10493;SDS011;5294;49.410;8.698;2022-10-16T09:54:13;2.80;;;1.93;;
10493;SDS011;5294;49.410;8.698;2022-10-16T09:56:39;2.43;;;1.80;;
10493;SDS011;5294;49.410;8.698;2022-10-16T09:59:14;1.80;;;1.70;;
10493;SDS011;5294;49.410;8.698;2022-10-16T10:01:47;2.37;;;2.20;;
10493;SDS011;5294;49.410;8.698;2022-10-16T10:04:18;2.30;;;1.70;;
10493;SDS011;5294;49.410;8.698;2022-10-16T10:06:45;2.73;;;1.73;;
10493;SDS011;5294;49.410;8.698;2022-10-16T10:09:18;2.10;;;2.00;;
10493;SDS011;5294;49.410;8.698;2022-10-16T10:16:42;1.80;;;1.70;;
10493;SDS011;5294;49.410;8.698;2022-10-16T10:19:19;1.87;;;1.73;;
10493;SDS011;5294;49.410;8.698;2022-10-16T10:21:46;6.13;;;2.23;;
10493;SDS011;5294;49.410;8.698;2022-10-16T10:24:15;2.23;;;2.00;;
10493;SDS011;5294;49.410;8.698;2022-10-16T10:39:57;2.25;;;2.00;;
10493;SDS011;5294;49.410;8.698;2022-10-16T10:43:03;4.13;;;2.20;;
10493;SDS011;5294;49.410;8.698;2022-10-16T10:47:50;2.70;;;1.60;;
10493;SDS011;5294;49.410;8.698;2022-10-16T10:53:06;2.97;;;1.83;;
10493;SDS011;5294;49.410;8.698;2022-10-16T10:55:39;2.15;;;1.95;;
10493;SDS011;5294;49.410;8.698;2022-10-16T11:03:27;2.08;;;1.92;;
10493;SDS011;5294;49.410;8.698;2022-10-16T11:08:27;2.38;;;1.75;;
10493;SDS011;5294;49.410;8.698;2022-10-16T11:11:00;2.55;;;1.83;;
10493;SDS011;5294;49.410;8.698;2022-10-16T11:13:32;1.80;;;1.70;;
10493;SDS011;5294;49.410;8.698;2022-10-16T11:16:01;4.68;;;2.22;;
10493;SDS011;5294;49.410;8.698;2022-10-16T11:21:26;2.10;;;1.67;;
10493;SDS011;5294;49.410;8.698;2022-10-16T11:26:26;3.20;;;1.67;;
10493;SDS011;5294;49.410;8.698;2022-10-16T11:28:55;2.50;;;2.38;;
10493;SDS011;5294;49.410;8.698;2022-10-16T11:34:01;2.90;;;2.13;;
10493;SDS011;5294;49.410;8.698;2022-10-16T11:36:47;2.35;;;2.15;;
10493;SDS011;5294;49.410;8.698;2022-10-16T11:39:21;2.70;;;2.50;;
10493;SDS011;5294;49.410;8.698;2022-10-16T11:41:55;3.07;;;2.77;;
10493;SDS011;5294;49.410;8.698;2022-10-16T11:44:27;3.13;;;2.07;;
10493;SDS011;5294;49.410;8.698;2022-10-16T11:47:14;4.27;;;2.30;;
10493;SDS011;5294;49.410;8.698;2022-10-16T11:49:42;3.33;;;2.17;;
10493;SDS011;5294;49.410;8.698;2022-10-16T11:52:13;3.77;;;2.33;;
10493;SDS011;5294;49.410;8.698;2022-10-16T11:57:20;2.73;;;2.10;;
10493;SDS011;5294;49.410;8.698;2022-10-16T12:00:47;2.73;;;2.10;;
10493;SDS011;5294;49.410;8.698;2022-10-16T12:10:26;2.60;;;2.23;;
10493;SDS011;5294;49.410;8.698;2022-10-16T12:12:53;2.47;;;2.27;;
10493;SDS011;5294;49.410;8.698;2022-10-16T12:17:45;2.07;;;1.63;;
10493;SDS011;5294;49.410;8.698;2022-10-16T12:22:41;2.43;;;2.23;;
10493;SDS011;5294;49.410;8.698;2022-10-16T12:28:03;2.73;;;2.00;;
10493;SDS011;5294;49.410;8.698;2022-10-16T12:30:31;1.90;;;1.70;;
10493;SDS011;5294;49.410;8.698;2022-10-16T12:33:01;2.97;;;2.00;;
10493;SDS011;5294;49.410;8.698;2022-10-16T12:35:34;2.20;;;2.10;;
10493;SDS011;5294;49.410;8.698;2022-10-16T12:40:41;2.20;;;2.10;;
10493;SDS011;5294;49.410;8.698;2022-10-16T12:43:28;2.60;;;1.93;;
10493;SDS011;5294;49.410;8.698;2022-10-16T12:48:32;4.43;;;2.10;;
10493;SDS011;5294;49.410;8.698;2022-10-16T12:51:09;3.37;;;2.50;;
10493;SDS011;5294;49.410;8.698;2022-10-16T12:53:38;2.23;;;2.03;;
10493;SDS011;5294;49.410;8.698;2022-10-16T13:01:28;5.17;;;2.23;;
10493;SDS011;5294;49.410;8.698;2022-10-16T13:04:02;2.30;;;2.20;;
10493;SDS011;5294;49.410;8.698;2022-10-16T13:17:18;3.50;;;2.20;;
10493;SDS011;5294;49.410;8.698;2022-10-16T13:30:17;2.80;;;2.40;;
10493;SDS011;5294;49.410;8.698;2022-10-16T13:32:45;4.17;;;2.50;;
10493;SDS011;5294;49.410;8.698;2022-10-16T13:35:21;6.77;;;2.60;;
10493;SDS011;5294;49.410;8.698;2022-10-16T13:37:50;2.20;;;2.00;;
10493;SDS011;5294;49.410;8.698;2022-10-16T13:42:45;2.90;;;1.83;;
10493;SDS011;5294;49.410;8.698;2022-10-16T13:45:25;2.40;;;2.20;;
10493;SDS011;5294;49.410;8.698;2022-10-16T13:48:08;2.47;;;1.90;;
10493;SDS011;5294;49.410;8.698;2022-10-16T13:50:39;2.83;;;2.27;;
10493;SDS011;5294;49.410;8.698;2022-10-16T13:53:17;6.30;;;2.57;;
10493;SDS011;5294;49.410;8.698;2022-10-16T13:55:45;3.97;;;2.60;;
10493;SDS011;5294;49.410;8.698;2022-10-16T13:58:12;6.80;;;3.00;;
10493;SDS011;5294;49.410;8.698;2022-10-16T14:00:42;2.83;;;2.50;;
10493;SDS011;5294;49.410;8.698;2022-10-16T14:03:18;3.43;;;2.70;;
10493;SDS011;5294;49.410;8.698;2022-10-16T14:08:17;6.00;;;2.70;;
10493;SDS011;5294;49.410;8.698;2022-10-16T14:10:46;3.97;;;3.17;;
10493;SDS011;5294;49.410;8.698;2022-10-16T14:13:14;6.37;;;3.10;;
10493;SDS011;5294;49.410;8.698;2022-10-16T14:15:45;7.83;;;3.23;;
10493;SDS011;5294;49.410;8.698;2022-10-16T14:18:19;3.77;;;2.83;;
10493;SDS011;5294;49.410;8.698;2022-10-16T14:20:46;5.83;;;2.80;;
10493;SDS011;5294;49.410;8.698;2022-10-16T14:23:23;5.37;;;2.90;;
10493;SDS011;5294;49.410;8.698;2022-10-16T14:25:54;4.53;;;3.10;;
10493;SDS011;5294;49.410;8.698;2022-10-16T14:28:23;4.80;;;2.60;;
10493;SDS011;5294;49.410;8.698;2022-10-16T14:30:55;4.80;;;2.50;;
10493;SDS011;5294;49.410;8.698;2022-10-16T14:38:50;5.27;;;2.90;;
10493;SDS011;5294;49.410;8.698;2022-10-16T14:41:22;3.77;;;2.30;;
10493;SDS011;5294;49.410;8.698;2022-10-16T14:43:53;5.50;;;2.60;;
10493;SDS011;5294;49.410;8.698;2022-10-16T14:46:20;3.83;;;2.80;;
10493;SDS011;5294;49.410;8.698;2022-10-16T14:48:51;5.63;;;2.90;;
10493;SDS011;5294;49.410;8.698;2022-10-16T14:51:18;2.87;;;2.67;;
10493;SDS011;5294;49.410;8.698;2022-10-16T14:53:46;3.93;;;2.90;;
10493;SDS011;5294;49.410;8.698;2022-10-16T14:56:14;7.70;;;3.07;;
10493;SDS011;5294;49.410;8.698;2022-10-16T14:58:44;2.83;;;2.70;;
10493;SDS011;5294;49.410;8.698;2022-10-16T15:01:10;6.27;;;2.90;;
10493;SDS011;5294;49.410;8.698;2022-10-16T15:03:38;4.10;;;3.00;;
10493;SDS011;5294;49.410;8.698;2022-10-16T15:06:08;8.77;;;2.90;;
10493;SDS011;5294;49.410;8.698;2022-10-16T15:08:35;3.77;;;3.00;;
10493;SDS011;5294;49.410;8.698;2022-10-16T15:11:01;6.10;;;3.00;;
10493;SDS011;5294;49.410;8.698;2022-10-16T15:13:29;6.80;;;3.17;;
10493;SDS011;5294;49.410;8.698;2022-10-16T15:15:57;3.80;;;3.40;;
10493;SDS011;5294;49.410;8.698;2022-10-16T15:18:23;6.07;;;3.63;;
10493;SDS011;5294;49.410;8.698;2022-10-16T15:20:50;4.73;;;3.63;;
10493;SDS011;5294;49.410;8.698;2022-10-16T15:23:17;3.23;;;3.03;;
10493;SDS011;5294;49.410;8.698;2022-10-16T15:25:51;7.43;;;3.20;;
10493;SDS011;5294;49.410;8.698;2022-10-16T15:28:17;5.23;;;3.23;;
10493;SDS011;5294;49.410;8.698;2022-10-16T15:30:46;4.03;;;2.97;;
10493;SDS011;5294;49.410;8.698;2022-10-16T15:33:15;4.53;;;3.03;;
10493;SDS011;5294;49.410;8.698;2022-10-16T15:35:41;3.60;;;2.80;;
10493;SDS011;5294;49.410;8.698;2022-10-16T15:38:11;4.63;;;2.93;;
10493;SDS011;5294;49.410;8.698;2022-10-16T15:40:37;6.93;;;3.13;;
10493;SDS011;5294;49.410;8.698;2022-10-16T15:43:06;5.67;;;3.70;;
10493;SDS011;5294;49.410;8.698;2022-10-16T15:45:32;5.10;;;3.43;;
10493;SDS011;5294;49.410;8.698;2022-10-16T15:48:00;4.93;;;3.00;;
10493;SDS011;5294;49.410;8.698;2022-10-16T15:50:26;6.47;;;2.83;;
10493;SDS011;5294;49.410;8.698;2022-10-16T15:52:52;8.83;;;3.40;;
10493;SDS011;5294;49.410;8.698;2022-10-16T15:55:18;4.47;;;3.00;;
10493;SDS011;5294;49.410;8.698;2022-10-16T15:57:44;7.90;;;3.23;;
10493;SDS011;5294;49.410;8.698;2022-10-16T16:00:12;5.77;;;3.60;;
10493;SDS011;5294;49.410;8.698;2022-10-16T16:02:38;8.40;;;3.43;;
10493;SDS011;5294;49.410;8.698;2022-10-16T16:05:04;7.33;;;3.40;;
10493;SDS011;5294;49.410;8.698;2022-10-16T16:07:33;8.67;;;3.47;;
10493;SDS011;5294;49.410;8.698;2022-10-16T16:10:02;6.13;;;3.00;;
10493;SDS011;5294;49.410;8.698;2022-10-16T16:12:31;5.60;;;3.23;;
10493;SDS011;5294;49.410;8.698;2022-10-16T16:14:57;6.13;;;3.40;;
10493;SDS011;5294;49.410;8.698;2022-10-16T16:17:25;5.30;;;3.20;;
10493;SDS011;5294;49.410;8.698;2022-10-16T16:19:51;5.93;;;3.63;;
10493;SDS011;5294;49.410;8.698;2022-10-16T16:22:17;4.23;;;3.20;;
10493;SDS011;5294;49.410;8.698;2022-10-16T16:24:47;4.20;;;3.40;;
10493;SDS011;5294;49.410;8.698;2022-10-16T16:27:14;6.50;;;3.60;;
10493;SDS011;5294;49.410;8.698;2022-10-16T16:29:40;9.30;;;4.03;;
10493;SDS011;5294;49.410;8.698;2022-10-16T16:32:06;4.50;;;3.63;;
10493;SDS011;5294;49.410;8.698;2022-10-16T16:34:34;5.90;;;3.23;;
10493;SDS011;5294;49.410;8.698;2022-10-16T16:37:03;4.00;;;3.70;;
10493;SDS011;5294;49.410;8.698;2022-10-16T16:39:31;6.83;;;3.43;;
10493;SDS011;5294;49.410;8.698;2022-10-16T16:41:57;6.40;;;3.47;;
10493;SDS011;5294;49.410;8.698;2022-10-16T16:44:23;9.17;;;4.00;;
10493;SDS011;5294;49.410;8.698;2022-10-16T16:46:49;4.27;;;3.80;;
10493;SDS011;5294;49.410;8.698;2022-10-16T16:49:19;3.80;;;3.33;;
10493;SDS011;5294;49.410;8.698;2022-10-16T16:51:47;7.03;;;4.10;;
10493;SDS011;5294;49.410;8.698;2022-10-16T16:54:16;5.33;;;4.20;;
10493;SDS011;5294;49.410;8.698;2022-10-16T16:56:44;6.33;;;4.03;;
10493;SDS011;5294;49.410;8.698;2022-10-16T16:59:14;5.07;;;3.60;;
10493;SDS011;5294;49.410;8.698;2022-10-16T17:01:40;6.27;;;3.90;;
10493;SDS011;5294;49.410;8.698;2022-10-16T17:04:06;9.23;;;4.33;;
10493;SDS011;5294;49.410;8.698;2022-10-16T17:06:33;6.47;;;3.77;;
10493;SDS011;5294;49.410;8.698;2022-10-16T17:09:00;4.93;;;3.90;;
10493;SDS011;5294;49.410;8.698;2022-10-16T17:11:27;5.67;;;3.80;;
10493;SDS011;5294;49.410;8.698;2022-10-16T17:13:54;9.10;;;4.20;;
10493;SDS011;5294;49.410;8.698;2022-10-16T17:16:21;7.43;;;4.23;;
10493;SDS011;5294;49.410;8.698;2022-10-16T17:18:47;4.13;;;3.73;;
10493;SDS011;5294;49.410;8.698;2022-10-16T17:21:13;6.73;;;3.77;;
10493;SDS011;5294;49.410;8.698;2022-10-16T17:23:39;4.20;;;3.80;;